Terminal Aerodrome Forecast
Issued by NWS Twin Cities, MN

Home | Current Version | Previous Version | Graphics & Text | Print | Product List | Glossary On
Versions: 1 2 3 4 5 6 7 8 9 10 11 12 13 14 15 16 17 18 19 20 21 22 23
000
FTUS43 KMPX 191700
TAFEAU
TAF
KEAU 191738Z 1918/2018 33007KT P6SM VCSH SCT020 BKN035
      TEMPO 1919/1923 P6SM -SHRA BKN018 OVC035
     FM200000 36003KT 6SM BR SCT100 SCT200
     FM200400 00000KT 4SM BR SCT003 SCT200
     FM200700 00000KT 2SM BR BKN001
      TEMPO 2008/2012 1/2SM FG OVC001
     FM201400 05005KT P6SM BKN025=

USA.gov is the U.S. government's official web portal to all federal, state and local government web resources and services.